sensor_id;sensor_type;location;lat;lon;timestamp;pressure;altitude;pressure_sealevel;temperature;humidity
5062;BME280;2351;50.812;12.872;2023-02-18T00:01:13;98156.78;;;7.67;100.00
5062;BME280;2351;50.812;12.872;2023-02-18T00:03:46;98157.81;;;7.65;100.00
5062;BME280;2351;50.812;12.872;2023-02-18T00:06:19;98157.00;;;7.64;100.00
5062;BME280;2351;50.812;12.872;2023-02-18T00:08:53;98159.09;;;7.59;100.00
5062;BME280;2351;50.812;12.872;2023-02-18T00:11:28;98152.25;;;7.57;100.00
5062;BME280;2351;50.812;12.872;2023-02-18T00:14:01;98153.44;;;7.52;100.00
5062;BME280;2351;50.812;12.872;2023-02-18T00:16:33;98160.59;;;7.50;100.00
5062;BME280;2351;50.812;12.872;2023-02-18T00:19:06;98178.50;;;7.45;100.00
5062;BME280;2351;50.812;12.872;2023-02-18T00:21:38;98179.34;;;7.46;100.00
5062;BME280;2351;50.812;12.872;2023-02-18T00:24:13;98188.22;;;7.45;100.00
5062;BME280;2351;50.812;12.872;2023-02-18T00:26:49;98187.56;;;7.41;100.00
5062;BME280;2351;50.812;12.872;2023-02-18T00:29:21;98183.75;;;7.45;100.00
5062;BME280;2351;50.812;12.872;2023-02-18T00:31:52;98174.19;;;7.44;100.00
5062;BME280;2351;50.812;12.872;2023-02-18T00:34:24;98169.13;;;7.41;100.00
5062;BME280;2351;50.812;12.872;2023-02-18T00:36:56;98157.56;;;7.31;100.00
5062;BME280;2351;50.812;12.872;2023-02-18T00:39:29;98166.94;;;7.35;100.00
5062;BME280;2351;50.812;12.872;2023-02-18T00:42:01;98167.88;;;7.34;100.00
5062;BME280;2351;50.812;12.872;2023-02-18T00:44:32;98174.09;;;7.33;100.00
5062;BME280;2351;50.812;12.872;2023-02-18T00:47:04;98175.13;;;7.30;100.00
5062;BME280;2351;50.812;12.872;2023-02-18T00:49:36;98170.50;;;7.34;100.00
5062;BME280;2351;50.812;12.872;2023-02-18T00:52:08;98173.25;;;7.32;100.00
5062;BME280;2351;50.812;12.872;2023-02-18T00:54:41;98177.47;;;7.35;100.00
5062;BME280;2351;50.812;12.872;2023-02-18T00:57:12;98179.78;;;7.39;100.00
5062;BME280;2351;50.812;12.872;2023-02-18T00:59:44;98167.66;;;7.37;100.00
5062;BME280;2351;50.812;12.872;2023-02-18T01:02:16;98174.63;;;7.38;100.00
5062;BME280;2351;50.812;12.872;2023-02-18T01:04:48;98172.00;;;7.38;100.00
5062;BME280;2351;50.812;12.872;2023-02-18T01:07:19;98172.63;;;7.42;100.00
5062;BME280;2351;50.812;12.872;2023-02-18T01:09:53;98174.38;;;7.41;100.00
5062;BME280;2351;50.812;12.872;2023-02-18T01:12:24;98162.69;;;7.45;100.00
5062;BME280;2351;50.812;12.872;2023-02-18T01:14:57;98169.13;;;7.41;100.00
5062;BME280;2351;50.812;12.872;2023-02-18T01:17:30;98174.38;;;7.41;100.00
5062;BME280;2351;50.812;12.872;2023-02-18T01:20:02;98176.31;;;7.39;100.00
5062;BME280;2351;50.812;12.872;2023-02-18T01:22:34;98172.00;;;7.38;100.00
5062;BME280;2351;50.812;12.872;2023-02-18T01:25:08;98166.94;;;7.35;100.00
5062;BME280;2351;50.812;12.872;2023-02-18T01:27:40;98174.09;;;7.33;100.00
5062;BME280;2351;50.812;12.872;2023-02-18T01:30:14;98167.56;;;7.38;100.00
5062;BME280;2351;50.812;12.872;2023-02-18T01:32:46;98166.06;;;7.34;100.00
5062;BME280;2351;50.812;12.872;2023-02-18T01:35:19;98171.06;;;7.26;100.00
5062;BME280;2351;50.812;12.872;2023-02-18T01:37:51;98164.84;;;7.27;100.00
5062;BME280;2351;50.812;12.872;2023-02-18T01:40:27;98183.28;;;7.27;100.00
5062;BME280;2351;50.812;12.872;2023-02-18T01:42:59;98164.09;;;7.25;100.00
5062;BME280;2351;50.812;12.872;2023-02-18T01:45:47;98167.75;;;7.22;100.00
5062;BME280;2351;50.812;12.872;2023-02-18T01:48:22;98161.56;;;7.23;100.00
5062;BME280;2351;50.812;12.872;2023-02-18T01:50:59;98163.44;;;7.21;100.00
5062;BME280;2351;50.812;12.872;2023-02-18T01:53:36;98163.44;;;7.21;100.00
5062;BME280;2351;50.812;12.872;2023-02-18T01:56:15;98152.19;;;7.19;100.00
5062;BME280;2351;50.812;12.872;2023-02-18T01:58:50;98147.56;;;7.23;100.00
5062;BME280;2351;50.812;12.872;2023-02-18T02:01:25;98155.66;;;7.20;100.00
5062;BME280;2351;50.812;12.872;2023-02-18T02:03:57;98154.06;;;7.17;100.00
5062;BME280;2351;50.812;12.872;2023-02-18T02:06:29;98151.97;;;7.22;100.00
5062;BME280;2351;50.812;12.872;2023-02-18T02:09:03;98153.97;;;7.19;100.00
5062;BME280;2351;50.812;12.872;2023-02-18T02:11:57;98152.50;;;7.15;100.00
5062;BME280;2351;50.812;12.872;2023-02-18T02:14:44;98165.34;;;7.19;100.00
5062;BME280;2351;50.812;12.872;2023-02-18T02:17:26;98159.25;;;7.19;100.00
5062;BME280;2351;50.812;12.872;2023-02-18T02:20:20;98170.94;;;7.15;100.00
5062;BME280;2351;50.812;12.872;2023-02-18T02:23:24;98175.03;;;7.19;100.00
5062;BME280;2351;50.812;12.872;2023-02-18T02:26:24;98180.41;;;7.17;100.00
5062;BME280;2351;50.812;12.872;2023-02-18T02:35:28;98177.88;;;7.03;100.00
5062;BME280;2351;50.812;12.872;2023-02-18T02:38:05;98178.81;;;7.02;100.00
5062;BME280;2351;50.812;12.872;2023-02-18T02:40:43;98166.28;;;6.92;100.00
5062;BME280;2351;50.812;12.872;2023-02-18T02:43:22;98177.84;;;6.90;100.00
5062;BME280;2351;50.812;12.872;2023-02-18T02:46:01;98176.50;;;6.84;100.00
5062;BME280;2351;50.812;12.872;2023-02-18T02:48:39;98169.53;;;6.83;100.00
5062;BME280;2351;50.812;12.872;2023-02-18T02:51:18;98164.69;;;6.77;100.00
5062;BME280;2351;50.812;12.872;2023-02-18T02:53:52;98170.88;;;6.76;100.00
5062;BME280;2351;50.812;12.872;2023-02-18T02:56:24;98180.03;;;6.70;100.00
5062;BME280;2351;50.812;12.872;2023-02-18T02:58:58;98151.97;;;6.71;100.00
5062;BME280;2351;50.812;12.872;2023-02-18T03:01:36;98162.69;;;6.68;100.00
5062;BME280;2351;50.812;12.872;2023-02-18T03:04:30;98174.66;;;6.59;100.00
5062;BME280;2351;50.812;12.872;2023-02-18T03:10:16;98168.53;;;6.58;100.00
5062;BME280;2351;50.812;12.872;2023-02-18T03:12:54;98160.75;;;6.57;100.00
5062;BME280;2351;50.812;12.872;2023-02-18T03:15:35;98170.41;;;6.56;100.00
5062;BME280;2351;50.812;12.872;2023-02-18T03:18:14;98165.91;;;6.58;100.00
5062;BME280;2351;50.812;12.872;2023-02-18T03:20:52;98154.66;;;6.56;100.00
5062;BME280;2351;50.812;12.872;2023-02-18T03:23:32;98159.91;;;6.56;100.00
5062;BME280;2351;50.812;12.872;2023-02-18T03:26:07;98160.84;;;6.55;100.00
5062;BME280;2351;50.812;12.872;2023-02-18T03:28:40;98155.59;;;6.55;100.00
5062;BME280;2351;50.812;12.872;2023-02-18T03:31:15;98174.00;;;6.55;100.00
5062;BME280;2351;50.812;12.872;2023-02-18T03:33:54;98163.47;;;6.55;100.00
5062;BME280;2351;50.812;12.872;2023-02-18T03:36:27;98168.75;;;6.55;100.00
5062;BME280;2351;50.812;12.872;2023-02-18T03:39:04;98166.03;;;6.57;100.00
5062;BME280;2351;50.812;12.872;2023-02-18T03:41:38;98158.03;;;6.58;100.00
5062;BME280;2351;50.812;12.872;2023-02-18T03:44:10;98161.59;;;6.57;100.00
5062;BME280;2351;50.812;12.872;2023-02-18T03:46:43;98143.19;;;6.57;100.00
5062;BME280;2351;50.812;12.872;2023-02-18T03:49:15;98149.81;;;6.63;100.00
5062;BME280;2351;50.812;12.872;2023-02-18T03:51:47;98150.03;;;6.60;100.00
5062;BME280;2351;50.812;12.872;2023-02-18T03:54:20;98136.03;;;6.59;100.00
5062;BME280;2351;50.812;12.872;2023-02-18T03:56:52;98138.34;;;6.64;100.00
5062;BME280;2351;50.812;12.872;2023-02-18T03:59:24;98142.66;;;6.65;100.00
5062;BME280;2351;50.812;12.872;2023-02-18T04:01:55;98152.16;;;6.68;100.00
5062;BME280;2351;50.812;12.872;2023-02-18T04:04:27;98145.84;;;6.70;100.00
5062;BME280;2351;50.812;12.872;2023-02-18T04:06:59;98154.59;;;6.71;100.00
5062;BME280;2351;50.812;12.872;2023-02-18T04:09:32;98157.97;;;6.73;100.00
5062;BME280;2351;50.812;12.872;2023-02-18T04:12:04;98153.53;;;6.73;100.00
5062;BME280;2351;50.812;12.872;2023-02-18T04:14:36;98154.47;;;6.72;100.00
5062;BME280;2351;50.812;12.872;2023-02-18T04:17:07;98153.53;;;6.73;100.00
5062;BME280;2351;50.812;12.872;2023-02-18T04:19:39;98154.28;;;6.75;100.00
5062;BME280;2351;50.812;12.872;2023-02-18T04:22:11;98151.63;;;6.75;100.00
5062;BME280;2351;50.812;12.872;2023-02-18T04:24:44;98153.41;;;6.75;100.00
5062;BME280;2351;50.812;12.872;2023-02-18T04:27:15;98151.84;;;6.72;100.00
5062;BME280;2351;50.812;12.872;2023-02-18T04:29:47;98145.00;;;6.70;100.00
5062;BME280;2351;50.812;12.872;2023-02-18T04:32:19;98141.44;;;6.71;100.00
5062;BME280;2351;50.812;12.872;2023-02-18T04:34:51;98144.69;;;6.74;100.00
5062;BME280;2351;50.812;12.872;2023-02-18T04:37:22;98135.94;;;6.74;100.00
5062;BME280;2351;50.812;12.872;2023-02-18T04:39:56;98137.00;;;6.71;100.00
5062;BME280;2351;50.812;12.872;2023-02-18T04:42:27;98133.75;;;6.68;100.00
5062;BME280;2351;50.812;12.872;2023-02-18T04:44:59;98123.97;;;6.70;100.00
5062;BME280;2351;50.812;12.872;2023-02-18T04:47:31;98129.22;;;6.70;100.00
5062;BME280;2351;50.812;12.872;2023-02-18T04:50:03;98140.38;;;6.73;100.00
5062;BME280;2351;50.812;12.872;2023-02-18T04:52:35;98135.50;;;6.67;100.00
5062;BME280;2351;50.812;12.872;2023-02-18T04:55:08;98139.94;;;6.67;100.00
5062;BME280;2351;50.812;12.872;2023-02-18T04:57:40;98134.78;;;6.65;100.00
5062;BME280;2351;50.812;12.872;2023-02-18T05:00:14;98142.66;;;6.65;100.00
5062;BME280;2351;50.812;12.872;2023-02-18T05:02:46;98148.78;;;6.66;100.00
5062;BME280;2351;50.812;12.872;2023-02-18T05:05:18;98143.72;;;6.62;100.00
5062;BME280;2351;50.812;12.872;2023-02-18T05:07:50;98142.66;;;6.65;100.00
5062;BME280;2351;50.812;12.872;2023-02-18T05:10:23;98135.00;;;6.62;100.00
5062;BME280;2351;50.812;12.872;2023-02-18T05:12:54;98133.19;;;6.62;100.00
5062;BME280;2351;50.812;12.872;2023-02-18T05:15:26;98127.13;;;6.62;100.00
5062;BME280;2351;50.812;12.872;2023-02-18T05:17:58;98126.06;;;6.65;100.00
5062;BME280;2351;50.812;12.872;2023-02-18T05:20:30;98106.69;;;6.66;100.00
5062;BME280;2351;50.812;12.872;2023-02-18T05:23:01;98107.66;;;6.65;100.00
5062;BME280;2351;50.812;12.872;2023-02-18T05:25:34;98099.63;;;6.66;100.00
5062;BME280;2351;50.812;12.872;2023-02-18T05:28:06;98095.13;;;6.68;100.00
5062;BME280;2351;50.812;12.872;2023-02-18T05:30:38;98090.72;;;6.69;100.00
5062;BME280;2351;50.812;12.872;2023-02-18T05:33:09;98083.78;;;6.68;100.00
5062;BME280;2351;50.812;12.872;2023-02-18T05:35:41;98082.81;;;6.69;100.00
5062;BME280;2351;50.812;12.872;2023-02-18T05:38:13;98081.03;;;6.69;100.00
5062;BME280;2351;50.812;12.872;2023-02-18T05:40:46;98066.84;;;6.72;100.00
5062;BME280;2351;50.812;12.872;2023-02-18T05:43:18;98060.63;;;6.73;100.00
5062;BME280;2351;50.812;12.872;2023-02-18T05:45:50;98080.94;;;6.71;100.00
5062;BME280;2351;50.812;12.872;2023-02-18T05:48:22;98071.25;;;6.71;100.00
5062;BME280;2351;50.812;12.872;2023-02-18T05:50:53;98056.06;;;6.75;100.00
5062;BME280;2351;50.812;12.872;2023-02-18T05:53:25;98056.94;;;6.75;100.00
5062;BME280;2351;50.812;12.872;2023-02-18T05:55:58;98058.72;;;6.75;100.00
5062;BME280;2351;50.812;12.872;2023-02-18T05:58:30;98058.00;;;6.73;100.00
5062;BME280;2351;50.812;12.872;2023-02-18T06:01:02;98047.38;;;6.74;100.00
5062;BME280;2351;50.812;12.872;2023-02-18T06:03:34;98039.59;;;6.73;100.00
5062;BME280;2351;50.812;12.872;2023-02-18T06:06:06;98036.09;;;6.72;100.00
5062;BME280;2351;50.812;12.872;2023-02-18T06:08:38;98031.56;;;6.74;100.00
5062;BME280;2351;50.812;12.872;2023-02-18T06:11:11;98017.69;;;6.72;100.00
5062;BME280;2351;50.812;12.872;2023-02-18T06:13:43;98024.75;;;6.72;100.00
5062;BME280;2351;50.812;12.872;2023-02-18T06:16:15;98030.31;;;6.67;100.00
5062;BME280;2351;50.812;12.872;2023-02-18T06:18:46;98020.66;;;6.68;100.00
5062;BME280;2351;50.812;12.872;2023-02-18T06:21:18;98018.00;;;6.68;100.00
5062;BME280;2351;50.812;12.872;2023-02-18T06:23:50;98012.00;;;6.66;100.00
5062;BME280;2351;50.812;12.872;2023-02-18T06:26:23;98019.28;;;6.62;100.00
5062;BME280;2351;50.812;12.872;2023-02-18T06:28:55;98011.47;;;6.60;100.00
5062;BME280;2351;50.812;12.872;2023-02-18T06:31:27;98006.84;;;6.64;100.00
5062;BME280;2351;50.812;12.872;2023-02-18T06:33:58;98017.47;;;6.62;100.00
5062;BME280;2351;50.812;12.872;2023-02-18T06:36:30;98014.97;;;6.61;100.00
5062;BME280;2351;50.812;12.872;2023-02-18T06:39:03;98020.00;;;6.64;100.00
5062;BME280;2351;50.812;12.872;2023-02-18T06:41:36;98012.09;;;6.64;100.00
5062;BME280;2351;50.812;12.872;2023-02-18T06:44:08;98016.53;;;6.63;100.00
5062;BME280;2351;50.812;12.872;2023-02-18T06:46:40;98015.69;;;6.63;100.00
5062;BME280;2351;50.812;12.872;2023-02-18T06:49:12;98006.75;;;6.66;100.00
5062;BME280;2351;50.812;12.872;2023-02-18T06:51:43;98005.47;;;6.71;100.00
5062;BME280;2351;50.812;12.872;2023-02-18T06:54:15;98002.75;;;6.73;100.00
5062;BME280;2351;50.812;12.872;2023-02-18T06:56:48;98004.41;;;6.74;100.00
5062;BME280;2351;50.812;12.872;2023-02-18T06:59:20;97991.06;;;6.77;100.00
5062;BME280;2351;50.812;12.872;2023-02-18T07:01:52;97991.78;;;6.79;100.00
5062;BME280;2351;50.812;12.872;2023-02-18T07:04:23;97996.75;;;6.84;100.00
5062;BME280;2351;50.812;12.872;2023-02-18T07:06:55;97981.47;;;6.89;100.00
5062;BME280;2351;50.812;12.872;2023-02-18T07:09:27;97982.72;;;6.96;100.00
5062;BME280;2351;50.812;12.872;2023-02-18T07:12:00;97984.81;;;7.04;100.00
5062;BME280;2351;50.812;12.872;2023-02-18T07:14:31;97980.16;;;7.07;100.00
5062;BME280;2351;50.812;12.872;2023-02-18T07:17:03;97976.75;;;7.18;100.00
5062;BME280;2351;50.812;12.872;2023-02-18T07:19:35;97967.81;;;7.21;100.00
5062;BME280;2351;50.812;12.872;2023-02-18T07:22:06;97956.94;;;7.26;100.00
5062;BME280;2351;50.812;12.872;2023-02-18T07:24:38;97945.84;;;7.33;100.00
5062;BME280;2351;50.812;12.872;2023-02-18T07:27:11;97962.16;;;7.38;100.00
5062;BME280;2351;50.812;12.872;2023-02-18T07:29:43;97948.44;;;7.46;100.00
5062;BME280;2351;50.812;12.872;2023-02-18T07:32:16;97941.63;;;7.55;100.00
5062;BME280;2351;50.812;12.872;2023-02-18T07:34:50;97941.63;;;7.55;100.00
5062;BME280;2351;50.812;12.872;2023-02-18T07:37:22;97931.75;;;7.59;100.00
5062;BME280;2351;50.812;12.872;2023-02-18T07:39:53;97933.69;;;7.68;100.00
5062;BME280;2351;50.812;12.872;2023-02-18T07:42:26;97937.63;;;7.74;100.00
5062;BME280;2351;50.812;12.872;2023-02-18T07:44:58;97934.47;;;7.81;100.00
5062;BME280;2351;50.812;12.872;2023-02-18T07:47:30;97918.88;;;7.90;100.00
5062;BME280;2351;50.812;12.872;2023-02-18T07:50:02;97925.84;;;7.91;100.00
5062;BME280;2351;50.812;12.872;2023-02-18T07:52:34;97921.28;;;7.93;100.00
5062;BME280;2351;50.812;12.872;2023-02-18T07:55:06;97913.91;;;8.09;100.00
5062;BME280;2351;50.812;12.872;2023-02-18T07:57:40;97927.56;;;8.03;100.00
5062;BME280;2351;50.812;12.872;2023-02-18T08:00:25;97932.84;;;8.03;100.00
5062;BME280;2351;50.812;12.872;2023-02-18T08:02:57;97915.72;;;8.20;100.00
5062;BME280;2351;50.812;12.872;2023-02-18T08:05:29;97923.63;;;8.20;100.00
5062;BME280;2351;50.812;12.872;2023-02-18T08:08:00;97920.03;;;8.21;100.00
5062;BME280;2351;50.812;12.872;2023-02-18T08:10:32;97918.00;;;8.25;100.00
5062;BME280;2351;50.812;12.872;2023-02-18T08:13:05;97921.59;;;8.24;100.00
5062;BME280;2351;50.812;12.872;2023-02-18T08:15:37;97927.38;;;8.40;100.00
5062;BME280;2351;50.812;12.872;2023-02-18T08:18:15;97920.28;;;8.41;100.00
5062;BME280;2351;50.812;12.872;2023-02-18T08:20:47;97918.50;;;8.41;100.00
5062;BME280;2351;50.812;12.872;2023-02-18T08:23:21;97911.47;;;8.53;100.00
5062;BME280;2351;50.812;12.872;2023-02-18T08:25:54;97908.44;;;8.58;100.00
5062;BME280;2351;50.812;12.872;2023-02-18T08:28:28;97907.50;;;8.70;100.00
5062;BME280;2351;50.812;12.872;2023-02-18T08:30:59;97895.13;;;8.82;100.00
5062;BME280;2351;50.812;12.872;2023-02-18T08:33:31;97888.03;;;8.83;100.00
5062;BME280;2351;50.812;12.872;2023-02-18T08:36:06;97895.47;;;8.89;100.00
5062;BME280;2351;50.812;12.872;2023-02-18T08:38:39;97888.28;;;8.91;100.00
5062;BME280;2351;50.812;12.872;2023-02-18T08:41:11;97883.00;;;8.91;100.00
5062;BME280;2351;50.812;12.872;2023-02-18T08:43:46;97878.31;;;8.95;100.00
5062;BME280;2351;50.812;12.872;2023-02-18T08:46:18;97868.84;;;8.92;100.00
5062;BME280;2351;50.812;12.872;2023-02-18T08:48:49;97877.34;;;8.96;100.00
5062;BME280;2351;50.812;12.872;2023-02-18T08:51:21;97873.25;;;8.92;100.00
5062;BME280;2351;50.812;12.872;2023-02-18T08:53:53;97869.09;;;8.89;100.00
5062;BME280;2351;50.812;12.872;2023-02-18T08:56:25;97867.88;;;8.93;100.00
5062;BME280;2351;50.812;12.872;2023-02-18T08:58:58;97871.38;;;8.82;100.00
5062;BME280;2351;50.812;12.872;2023-02-18T09:01:30;97875.44;;;8.86;100.00
5062;BME280;2351;50.812;12.872;2023-02-18T09:04:02;97874.38;;;8.89;100.00
5062;BME280;2351;50.812;12.872;2023-02-18T09:06:36;97856.84;;;8.88;100.00
5062;BME280;2351;50.812;12.872;2023-02-18T09:09:08;97862.59;;;8.93;100.00
5062;BME280;2351;50.812;12.872;2023-02-18T09:11:40;97851.06;;;8.94;100.00
5062;BME280;2351;50.812;12.872;2023-02-18T09:14:13;97850.56;;;9.00;100.00
5062;BME280;2351;50.812;12.872;2023-02-18T09:16:45;97849.97;;;8.97;100.00
5062;BME280;2351;50.812;12.872;2023-02-18T09:19:17;97854.06;;;9.01;100.00
5062;BME280;2351;50.812;12.872;2023-02-18T09:21:49;97851.53;;;8.99;100.00
5062;BME280;2351;50.812;12.872;2023-02-18T09:24:22;97853.44;;;8.97;100.00
5062;BME280;2351;50.812;12.872;2023-02-18T09:26:55;97853.09;;;9.02;100.00
5062;BME280;2351;50.812;12.872;2023-02-18T09:29:28;97843.75;;;8.98;100.00
5062;BME280;2351;50.812;12.872;2023-02-18T09:32:00;97840.84;;;9.01;100.00
5062;BME280;2351;50.812;12.872;2023-02-18T09:34:31;97836.16;;;9.04;100.00
5062;BME280;2351;50.812;12.872;2023-02-18T09:37:03;97829.19;;;9.03;100.00
5062;BME280;2351;50.812;12.872;2023-02-18T09:39:35;97824.16;;;9.00;100.00
5062;BME280;2351;50.812;12.872;2023-02-18T09:42:12;97820.81;;;8.98;100.00
5062;BME280;2351;50.812;12.872;2023-02-18T09:44:48;97808.00;;;8.94;100.00
5062;BME280;2351;50.812;12.872;2023-02-18T09:47:29;97797.56;;;8.92;100.00
5062;BME280;2351;50.812;12.872;2023-02-18T09:50:05;97802.56;;;8.95;100.00
5062;BME280;2351;50.812;12.872;2023-02-18T09:52:38;97802.84;;;8.92;100.00
5062;BME280;2351;50.812;12.872;2023-02-18T09:55:18;97806.47;;;8.91;100.00
5062;BME280;2351;50.812;12.872;2023-02-18T09:57:52;97796.34;;;8.96;100.00
5062;BME280;2351;50.812;12.872;2023-02-18T10:00:29;97790.56;;;9.02;100.00
5062;BME280;2351;50.812;12.872;2023-02-18T10:03:05;97800.16;;;9.03;100.00
5062;BME280;2351;50.812;12.872;2023-02-18T10:05:41;97798.38;;;9.04;100.00
5062;BME280;2351;50.812;12.872;2023-02-18T10:08:18;97795.34;;;9.09;100.00
5062;BME280;2351;50.812;12.872;2023-02-18T10:10:52;97788.84;;;9.13;100.00
5062;BME280;2351;50.812;12.872;2023-02-18T10:13:26;97785.09;;;9.15;100.00
5062;BME280;2351;50.812;12.872;2023-02-18T10:16:01;97773.09;;;9.23;100.00
5062;BME280;2351;50.812;12.872;2023-02-18T10:18:38;97764.63;;;9.29;100.00
5062;BME280;2351;50.812;12.872;2023-02-18T10:21:13;97767.72;;;9.34;100.00
5062;BME280;2351;50.812;12.872;2023-02-18T10:23:52;97765.28;;;9.42;100.00
5062;BME280;2351;50.812;12.872;2023-02-18T10:26:25;97763.94;;;9.48;100.00
5062;BME280;2351;50.812;12.872;2023-02-18T10:28:57;97745.38;;;9.59;100.00
5062;BME280;2351;50.812;12.872;2023-02-18T10:31:34;97741.63;;;9.62;100.00
5062;BME280;2351;50.812;12.872;2023-02-18T10:34:12;97748.19;;;9.68;100.00
5062;BME280;2351;50.812;12.872;2023-02-18T10:36:50;97745.19;;;9.82;100.00
5062;BME280;2351;50.812;12.872;2023-02-18T10:39:38;97744.53;;;9.90;100.00
5062;BME280;2351;50.812;12.872;2023-02-18T10:42:26;97740.13;;;10.00;100.00
5062;BME280;2351;50.812;12.872;2023-02-18T10:45:10;97711.63;;;10.04;100.00
5062;BME280;2351;50.812;12.872;2023-02-18T10:47:53;97741.78;;;10.01;100.00
5062;BME280;2351;50.812;12.872;2023-02-18T10:50:31;97734.81;;;10.00;100.00
5062;BME280;2351;50.812;12.872;2023-02-18T10:53:11;97725.38;;;9.98;100.00
5062;BME280;2351;50.812;12.872;2023-02-18T10:55:45;97723.53;;;9.98;100.00
5062;BME280;2351;50.812;12.872;2023-02-18T10:58:32;97723.25;;;9.91;100.00
5062;BME280;2351;50.812;12.872;2023-02-18T11:01:05;97729.25;;;9.93;100.00
5062;BME280;2351;50.812;12.872;2023-02-18T11:03:41;97731.44;;;9.88;100.00
5062;BME280;2351;50.812;12.872;2023-02-18T11:06:20;97711.25;;;9.87;100.00
5062;BME280;2351;50.812;12.872;2023-02-18T11:08:53;97719.75;;;9.81;100.00
5062;BME280;2351;50.812;12.872;2023-02-18T11:11:29;97712.34;;;9.75;100.00
5062;BME280;2351;50.812;12.872;2023-02-18T11:14:02;97716.91;;;9.73;100.00
5062;BME280;2351;50.812;12.872;2023-02-18T11:16:36;97693.44;;;9.79;100.00
5062;BME280;2351;50.812;12.872;2023-02-18T11:19:31;97700.94;;;9.84;100.00
5062;BME280;2351;50.812;12.872;2023-02-18T11:22:10;97702.38;;;9.88;100.00
5062;BME280;2351;50.812;12.872;2023-02-18T11:24:45;97690.13;;;9.87;100.00
5062;BME280;2351;50.812;12.872;2023-02-18T11:27:23;97690.38;;;9.84;98.67
5062;BME280;2351;50.812;12.872;2023-02-18T11:30:03;97693.16;;;9.83;99.17
5062;BME280;2351;50.812;12.872;2023-02-18T11:32:35;97701.50;;;9.78;98.17
5062;BME280;2351;50.812;12.872;2023-02-18T11:35:17;97685.91;;;9.75;97.78
5062;BME280;2351;50.812;12.872;2023-02-18T11:37:50;97688.41;;;9.76;97.98
5062;BME280;2351;50.812;12.872;2023-02-18T11:40:25;97705.38;;;9.74;98.08
5062;BME280;2351;50.812;12.872;2023-02-18T11:43:04;97697.81;;;9.59;97.04
5062;BME280;2351;50.812;12.872;2023-02-18T11:45:36;97701.22;;;9.50;97.21
5062;BME280;2351;50.812;12.872;2023-02-18T11:48:14;97694.69;;;9.44;97.01
5062;BME280;2351;50.812;12.872;2023-02-18T11:50:51;97689.13;;;9.47;97.14
5062;BME280;2351;50.812;12.872;2023-02-18T11:53:29;97701.63;;;9.45;96.85
5062;BME280;2351;50.812;12.872;2023-02-18T11:56:04;97696.31;;;9.36;96.44
5062;BME280;2351;50.812;12.872;2023-02-18T11:58:38;97698.22;;;9.33;96.85
5062;BME280;2351;50.812;12.872;2023-02-18T12:01:14;97689.59;;;9.31;96.90
5062;BME280;2351;50.812;12.872;2023-02-18T12:03:53;97682.66;;;9.30;96.55
5062;BME280;2351;50.812;12.872;2023-02-18T12:06:32;97677.63;;;9.27;96.20
5062;BME280;2351;50.812;12.872;2023-02-18T12:09:17;97676.91;;;9.25;96.47
5062;BME280;2351;50.812;12.872;2023-02-18T12:11:52;97681.03;;;9.18;95.67
5062;BME280;2351;50.812;12.872;2023-02-18T12:14:25;97659.47;;;9.13;95.47
5062;BME280;2351;50.812;12.872;2023-02-18T12:17:15;97669.44;;;9.09;95.05
5062;BME280;2351;50.812;12.872;2023-02-18T12:20:05;97667.19;;;9.04;94.47
5062;BME280;2351;50.812;12.872;2023-02-18T12:22:44;97675.25;;;9.03;94.55
5062;BME280;2351;50.812;12.872;2023-02-18T12:25:22;97669.63;;;8.96;94.17
5062;BME280;2351;50.812;12.872;2023-02-18T12:28:22;97678.41;;;8.97;94.20
5062;BME280;2351;50.812;12.872;2023-02-18T12:31:09;97670.16;;;8.90;93.78
5062;BME280;2351;50.812;12.872;2023-02-18T12:33:55;97667.28;;;8.93;93.54
5062;BME280;2351;50.812;12.872;2023-02-18T12:36:38;97673.25;;;8.95;93.79
5062;BME280;2351;50.812;12.872;2023-02-18T12:39:27;97674.34;;;8.93;93.32
5062;BME280;2351;50.812;12.872;2023-02-18T12:42:25;97688.81;;;8.98;93.48
5062;BME280;2351;50.812;12.872;2023-02-18T12:45:14;97673.78;;;8.89;91.96
5062;BME280;2351;50.812;12.872;2023-02-18T12:48:04;97671.97;;;8.89;91.47
5062;BME280;2351;50.812;12.872;2023-02-18T12:51:00;97686.72;;;8.92;92.40
5062;BME280;2351;50.812;12.872;2023-02-18T12:53:48;97675.19;;;8.93;92.35
5062;BME280;2351;50.812;12.872;2023-02-18T12:59:51;97675.88;;;8.95;91.21
5062;BME280;2351;50.812;12.872;2023-02-18T13:05:30;97670.59;;;8.95;89.71
5062;BME280;2351;50.812;12.872;2023-02-18T13:08:18;97648.34;;;8.88;88.95
5062;BME280;2351;50.812;12.872;2023-02-18T13:11:03;97641.41;;;8.87;88.95
5062;BME280;2351;50.812;12.872;2023-02-18T13:13:46;97642.09;;;8.89;87.88
5062;BME280;2351;50.812;12.872;2023-02-18T13:16:22;97628.66;;;8.92;87.24
5062;BME280;2351;50.812;12.872;2023-02-18T13:18:59;97617.56;;;8.98;86.41
5062;BME280;2351;50.812;12.872;2023-02-18T13:21:33;97638.03;;;9.06;86.20
5062;BME280;2351;50.812;12.872;2023-02-18T13:24:10;97640.16;;;9.12;85.74
5062;BME280;2351;50.812;12.872;2023-02-18T13:26:45;97635.44;;;9.16;85.07
5062;BME280;2351;50.812;12.872;2023-02-18T13:29:23;97651.97;;;9.18;85.60
5062;BME280;2351;50.812;12.872;2023-02-18T13:32:07;97658.78;;;9.11;85.20
5062;BME280;2351;50.812;12.872;2023-02-18T13:34:45;97646.59;;;8.98;86.03
5062;BME280;2351;50.812;12.872;2023-02-18T13:37:24;97653.75;;;8.86;86.71
5062;BME280;2351;50.812;12.872;2023-02-18T13:39:58;97647.88;;;8.83;86.70
5062;BME280;2351;50.812;12.872;2023-02-18T13:42:35;97648.16;;;8.80;86.65
5062;BME280;2351;50.812;12.872;2023-02-18T13:45:26;97652.84;;;8.76;86.87
5062;BME280;2351;50.812;12.872;2023-02-18T13:48:00;97654.19;;;8.70;86.41
5062;BME280;2351;50.812;12.872;2023-02-18T13:50:40;97657.91;;;8.68;86.62
5062;BME280;2351;50.812;12.872;2023-02-18T13:53:23;97666.69;;;8.68;86.38
5062;BME280;2351;50.812;12.872;2023-02-18T13:55:59;97656.69;;;8.72;86.12
5062;BME280;2351;50.812;12.872;2023-02-18T13:58:36;97657.66;;;8.71;86.24
5062;BME280;2351;50.812;12.872;2023-02-18T14:01:21;97663.09;;;8.69;86.22
5062;BME280;2351;50.812;12.872;2023-02-18T14:03:58;97652.13;;;8.74;85.65
5062;BME280;2351;50.812;12.872;2023-02-18T14:06:32;97666.16;;;8.74;85.99
5062;BME280;2351;50.812;12.872;2023-02-18T14:09:34;97664.75;;;8.70;86.17
5062;BME280;2351;50.812;12.872;2023-02-18T14:12:23;97660.56;;;8.68;86.36